Impacts METAR Board INFO
IDs:

KSTL - St Louis/Lambert Int, MO, US

Updated at: 0501 UTC 18 Feb 2018
Potential Impact None Slight Moderate High
Time17/17Z 17/18Z 17/19Z 17/20Z 17/21Z 17/22Z 17/23Z 18/00Z 18/01Z 18/02Z 18/03Z 18/04Z 18/05Z
VIS2.5 4 1 4 10 10 10 10 10 10 10 9 9
CIG7 7 6 7 9 14 -- -- -- -- -- -- --
CoverOVCOVCOVCOVCOVCOVCSCTFEWCLRCLRCLRCLRCLR
FltCatIFRIFRIFRIFRIFRMVFRVFRVFRVFRVFRVFRVFRVFR
WX-SN BRBR-RA BRBR------------------
WDir17017019023025028029032025028029000
WSpd8 9 9 12 15 13 12 4 3 5 5 0 0
WGst-- -- -- -- 20 -- 22 -- -- -- -- -- --
Raw hourly METARs
KSTL 171651Z 17008KT 2 1/2SM -SN BR BKN007 OVC035 01/01 A3006 RMK AO2 SLP190 P0000 T00110006
KSTL 171751Z 17009KT 4SM BR OVC007 02/02 A3003 RMK AO2 SNE38 SLP179 P0000 60009 T00220017 10022 20000 58014
KSTL 171851Z 19009KT 1SM R30R/5500VP6000FT -RA BR OVC006 03/02 A3001 RMK AO2 RAB13 SLP171 P0001 T00280022
KSTL 171951Z 23012KT 4SM BR OVC007 04/03 A3001 RMK AO2 RAE41 SLP171 P0000 T00390033
KSTL 172051Z 25015G20KT 10SM BKN009 OVC011 05/04 A3003 RMK AO2 SLP178 60001 T00500039 55000
KSTL 172151Z 28013KT 10SM OVC014 05/03 A3007 RMK AO2 SLP190 T00500033
KSTL 172251Z 29012G22KT 10SM SCT023 06/03 A3010 RMK AO2 SLP200 T00610028
KSTL 172351Z 32004KT 10SM FEW023 04/02 A3012 RMK AO2 SLP207 60001 T00440022 10061 20022 51030
KSTL 180051Z 25003KT 10SM CLR 03/02 A3014 RMK AO2 SLP216 T00280017
KSTL 180151Z 28005KT 10SM CLR 02/01 A3018 RMK AO2 SLP228 T00220011
KSTL 180251Z 29005KT 10SM CLR 01/00 A3022 RMK AO2 SLP242 T00110000 53031
KSTL 180351Z 00000KT 9SM CLR 00/M01 A3023 RMK AO2 SLP247 T00001006
KSTL 180451Z 00000KT 9SM CLR M01/M01 A3023 RMK AO2 SLP246 T10061011